Tozeur, Tunisia
Current Conditions -  °F | °C
As of 2:00 PM on Thursday 23 Oct 2014 (Local Time) from DTTZ Reporting Station
Clear Clear  
Wind Chill: 77°   Ceiling: Unl
Heat Index: 77°   Visibility: 6mi
Dew Point: 39°   Wind: 9mph
Humidity: 26%   Direction: 280°W
Pressure: 30"   Gusts: NA
Location:  33.92°N, 8.13°E
Report Text: DTTZ 231300Z 28008KT 230V300 CAVOK 25/04 Q1016 NOSIG
Loading
Personal Weather Stations






























Interactive Weather Map
Tropical Storm Tracking
New forecast layout! Learn more

10-Day Weather Forecast

Advertisements
Track Severe Weather on mobile